sensor_id;sensor_type;location;lat;lon;timestamp;P1;durP1;ratioP1;P2;durP2;ratioP2
789;SDS011;378;48.844;9.156;2023-04-15T00:00:49;5.82;;;3.03;;
789;SDS011;378;48.844;9.156;2023-04-15T00:03:17;7.38;;;3.08;;
789;SDS011;378;48.844;9.156;2023-04-15T00:05:44;6.95;;;2.97;;
789;SDS011;378;48.844;9.156;2023-04-15T00:08:11;13.10;;;3.85;;
789;SDS011;378;48.844;9.156;2023-04-15T00:10:39;10.45;;;3.60;;
789;SDS011;378;48.844;9.156;2023-04-15T00:13:08;7.45;;;3.25;;
789;SDS011;378;48.844;9.156;2023-04-15T00:15:35;9.70;;;3.20;;
789;SDS011;378;48.844;9.156;2023-04-15T00:18:02;13.73;;;3.60;;
789;SDS011;378;48.844;9.156;2023-04-15T00:20:30;7.78;;;3.83;;
789;SDS011;378;48.844;9.156;2023-04-15T00:22:58;9.13;;;3.78;;
789;SDS011;378;48.844;9.156;2023-04-15T00:25:25;7.15;;;3.20;;
789;SDS011;378;48.844;9.156;2023-04-15T00:27:52;9.25;;;3.40;;
789;SDS011;378;48.844;9.156;2023-04-15T00:30:20;9.02;;;3.85;;
789;SDS011;378;48.844;9.156;2023-04-15T00:32:47;7.28;;;3.22;;
789;SDS011;378;48.844;9.156;2023-04-15T00:35:14;8.07;;;3.42;;
789;SDS011;378;48.844;9.156;2023-04-15T00:37:42;9.82;;;3.20;;
789;SDS011;378;48.844;9.156;2023-04-15T00:40:10;6.95;;;3.20;;
789;SDS011;378;48.844;9.156;2023-04-15T00:42:38;10.20;;;3.58;;
789;SDS011;378;48.844;9.156;2023-04-15T00:45:06;10.18;;;3.42;;
789;SDS011;378;48.844;9.156;2023-04-15T00:47:33;10.10;;;3.47;;
789;SDS011;378;48.844;9.156;2023-04-15T00:50:01;8.32;;;3.33;;
789;SDS011;378;48.844;9.156;2023-04-15T00:52:29;10.60;;;3.88;;
789;SDS011;378;48.844;9.156;2023-04-15T00:54:57;8.07;;;3.55;;
789;SDS011;378;48.844;9.156;2023-04-15T00:57:24;11.82;;;3.97;;
789;SDS011;378;48.844;9.156;2023-04-15T00:59:51;9.45;;;3.67;;
789;SDS011;378;48.844;9.156;2023-04-15T01:02:18;6.20;;;3.35;;
789;SDS011;378;48.844;9.156;2023-04-15T01:04:46;12.80;;;3.85;;
789;SDS011;378;48.844;9.156;2023-04-15T01:07:13;8.55;;;3.70;;
789;SDS011;378;48.844;9.156;2023-04-15T01:09:40;7.35;;;3.40;;
789;SDS011;378;48.844;9.156;2023-04-15T01:12:08;12.98;;;3.78;;
789;SDS011;378;48.844;9.156;2023-04-15T01:14:38;9.55;;;3.85;;
789;SDS011;378;48.844;9.156;2023-04-15T01:17:05;7.43;;;3.35;;
789;SDS011;378;48.844;9.156;2023-04-15T01:19:32;8.43;;;3.40;;
789;SDS011;378;48.844;9.156;2023-04-15T01:21:58;5.95;;;3.40;;
789;SDS011;378;48.844;9.156;2023-04-15T01:24:25;9.88;;;3.50;;
789;SDS011;378;48.844;9.156;2023-04-15T01:26:56;11.20;;;3.85;;
789;SDS011;378;48.844;9.156;2023-04-15T01:29:23;9.05;;;3.47;;
789;SDS011;378;48.844;9.156;2023-04-15T01:31:51;7.25;;;3.42;;
789;SDS011;378;48.844;9.156;2023-04-15T01:34:19;10.10;;;3.50;;
789;SDS011;378;48.844;9.156;2023-04-15T01:36:46;6.97;;;3.45;;
789;SDS011;378;48.844;9.156;2023-04-15T01:39:13;10.65;;;3.50;;
789;SDS011;378;48.844;9.156;2023-04-15T01:41:40;10.23;;;3.20;;
789;SDS011;378;48.844;9.156;2023-04-15T01:44:08;8.18;;;3.38;;
789;SDS011;378;48.844;9.156;2023-04-15T01:46:35;9.18;;;4.07;;
789;SDS011;378;48.844;9.156;2023-04-15T01:49:02;9.73;;;3.63;;
789;SDS011;378;48.844;9.156;2023-04-15T01:51:29;8.57;;;3.83;;
789;SDS011;378;48.844;9.156;2023-04-15T01:53:56;8.63;;;3.80;;
789;SDS011;378;48.844;9.156;2023-04-15T01:56:23;10.38;;;4.00;;
789;SDS011;378;48.844;9.156;2023-04-15T01:58:49;9.80;;;4.15;;
789;SDS011;378;48.844;9.156;2023-04-15T02:01:17;8.25;;;3.75;;
789;SDS011;378;48.844;9.156;2023-04-15T02:03:44;9.02;;;3.83;;
789;SDS011;378;48.844;9.156;2023-04-15T02:06:12;8.07;;;3.92;;
789;SDS011;378;48.844;9.156;2023-04-15T02:08:38;9.40;;;4.13;;
789;SDS011;378;48.844;9.156;2023-04-15T02:11:05;8.82;;;3.83;;
789;SDS011;378;48.844;9.156;2023-04-15T02:13:32;9.38;;;4.32;;
789;SDS011;378;48.844;9.156;2023-04-15T02:15:59;11.38;;;3.70;;
789;SDS011;378;48.844;9.156;2023-04-15T02:18:27;12.77;;;4.15;;
789;SDS011;378;48.844;9.156;2023-04-15T02:20:54;9.57;;;4.40;;
789;SDS011;378;48.844;9.156;2023-04-15T02:23:34;11.77;;;4.20;;
789;SDS011;378;48.844;9.156;2023-04-15T02:26:01;7.60;;;4.03;;
789;SDS011;378;48.844;9.156;2023-04-15T02:28:27;8.90;;;4.05;;
789;SDS011;378;48.844;9.156;2023-04-15T02:30:54;9.43;;;3.78;;
789;SDS011;378;48.844;9.156;2023-04-15T02:33:23;7.07;;;4.03;;
789;SDS011;378;48.844;9.156;2023-04-15T02:35:51;9.15;;;4.03;;
789;SDS011;378;48.844;9.156;2023-04-15T02:38:18;7.93;;;3.70;;
789;SDS011;378;48.844;9.156;2023-04-15T02:40:45;6.22;;;3.45;;
789;SDS011;378;48.844;9.156;2023-04-15T02:43:13;11.40;;;3.53;;
789;SDS011;378;48.844;9.156;2023-04-15T02:45:43;7.45;;;3.38;;
789;SDS011;378;48.844;9.156;2023-04-15T02:48:11;6.90;;;3.33;;
789;SDS011;378;48.844;9.156;2023-04-15T02:50:37;10.43;;;3.90;;
789;SDS011;378;48.844;9.156;2023-04-15T02:53:06;8.52;;;3.35;;
789;SDS011;378;48.844;9.156;2023-04-15T02:55:33;12.90;;;4.00;;
789;SDS011;378;48.844;9.156;2023-04-15T02:57:59;9.75;;;3.58;;
789;SDS011;378;48.844;9.156;2023-04-15T03:00:26;12.80;;;3.70;;
789;SDS011;378;48.844;9.156;2023-04-15T03:02:56;8.27;;;3.63;;
789;SDS011;378;48.844;9.156;2023-04-15T03:05:24;12.35;;;4.65;;
789;SDS011;378;48.844;9.156;2023-04-15T03:07:51;10.95;;;3.75;;
789;SDS011;378;48.844;9.156;2023-04-15T03:10:20;13.52;;;4.05;;
789;SDS011;378;48.844;9.156;2023-04-15T03:12:47;9.45;;;3.20;;
789;SDS011;378;48.844;9.156;2023-04-15T03:15:14;9.65;;;4.40;;
789;SDS011;378;48.844;9.156;2023-04-15T03:17:41;12.90;;;5.95;;
789;SDS011;378;48.844;9.156;2023-04-15T03:20:08;7.75;;;3.85;;
789;SDS011;378;48.844;9.156;2023-04-15T03:22:35;10.15;;;3.78;;
789;SDS011;378;48.844;9.156;2023-04-15T03:25:02;7.25;;;3.53;;
789;SDS011;378;48.844;9.156;2023-04-15T03:27:31;9.90;;;3.78;;
789;SDS011;378;48.844;9.156;2023-04-15T03:29:57;11.82;;;3.45;;
789;SDS011;378;48.844;9.156;2023-04-15T03:32:24;12.02;;;3.67;;
789;SDS011;378;48.844;9.156;2023-04-15T03:34:56;17.92;;;4.60;;
789;SDS011;378;48.844;9.156;2023-04-15T03:37:23;9.90;;;3.90;;
789;SDS011;378;48.844;9.156;2023-04-15T03:39:50;9.82;;;3.17;;
789;SDS011;378;48.844;9.156;2023-04-15T03:42:17;6.97;;;3.25;;
789;SDS011;378;48.844;9.156;2023-04-15T03:44:45;8.40;;;3.25;;
789;SDS011;378;48.844;9.156;2023-04-15T03:47:12;10.18;;;3.75;;
789;SDS011;378;48.844;9.156;2023-04-15T03:49:39;8.60;;;3.67;;
789;SDS011;378;48.844;9.156;2023-04-15T03:52:05;8.57;;;3.67;;
789;SDS011;378;48.844;9.156;2023-04-15T03:54:32;7.80;;;3.70;;
789;SDS011;378;48.844;9.156;2023-04-15T03:56:59;10.95;;;3.72;;
789;SDS011;378;48.844;9.156;2023-04-15T03:59:26;9.15;;;4.15;;
789;SDS011;378;48.844;9.156;2023-04-15T04:01:54;10.25;;;4.28;;
789;SDS011;378;48.844;9.156;2023-04-15T04:04:21;9.02;;;3.60;;
789;SDS011;378;48.844;9.156;2023-04-15T04:06:48;7.97;;;4.05;;
789;SDS011;378;48.844;9.156;2023-04-15T04:09:15;10.07;;;4.32;;
789;SDS011;378;48.844;9.156;2023-04-15T04:11:41;9.35;;;3.97;;
789;SDS011;378;48.844;9.156;2023-04-15T04:14:09;8.60;;;4.00;;
789;SDS011;378;48.844;9.156;2023-04-15T04:16:36;10.55;;;4.32;;
789;SDS011;378;48.844;9.156;2023-04-15T04:19:04;14.48;;;4.35;;
789;SDS011;378;48.844;9.156;2023-04-15T04:21:31;9.02;;;4.57;;
789;SDS011;378;48.844;9.156;2023-04-15T04:23:59;9.90;;;4.30;;
789;SDS011;378;48.844;9.156;2023-04-15T04:26:25;10.60;;;4.55;;
789;SDS011;378;48.844;9.156;2023-04-15T04:28:52;11.52;;;4.53;;
789;SDS011;378;48.844;9.156;2023-04-15T04:31:19;12.20;;;4.32;;
789;SDS011;378;48.844;9.156;2023-04-15T04:33:46;10.00;;;4.68;;
789;SDS011;378;48.844;9.156;2023-04-15T04:36:14;12.05;;;5.03;;
789;SDS011;378;48.844;9.156;2023-04-15T04:38:41;12.15;;;4.40;;
789;SDS011;378;48.844;9.156;2023-04-15T04:41:08;11.65;;;4.15;;
789;SDS011;378;48.844;9.156;2023-04-15T04:43:34;10.55;;;4.63;;
789;SDS011;378;48.844;9.156;2023-04-15T04:46:01;10.45;;;4.85;;
789;SDS011;378;48.844;9.156;2023-04-15T04:48:28;13.50;;;4.90;;
789;SDS011;378;48.844;9.156;2023-04-15T04:50:55;9.02;;;3.97;;
789;SDS011;378;48.844;9.156;2023-04-15T04:53:23;11.63;;;4.53;;
789;SDS011;378;48.844;9.156;2023-04-15T04:55:50;11.45;;;4.55;;
789;SDS011;378;48.844;9.156;2023-04-15T04:58:17;8.85;;;3.85;;
789;SDS011;378;48.844;9.156;2023-04-15T05:00:44;8.65;;;4.57;;
789;SDS011;378;48.844;9.156;2023-04-15T05:03:11;10.90;;;4.18;;
789;SDS011;378;48.844;9.156;2023-04-15T05:05:37;13.85;;;4.22;;
789;SDS011;378;48.844;9.156;2023-04-15T05:08:05;10.20;;;5.15;;
789;SDS011;378;48.844;9.156;2023-04-15T05:10:33;9.63;;;4.47;;
789;SDS011;378;48.844;9.156;2023-04-15T05:13:00;8.57;;;4.30;;
789;SDS011;378;48.844;9.156;2023-04-15T05:15:27;10.43;;;4.13;;
789;SDS011;378;48.844;9.156;2023-04-15T05:17:53;11.30;;;4.07;;
789;SDS011;378;48.844;9.156;2023-04-15T05:20:21;10.52;;;4.38;;
789;SDS011;378;48.844;9.156;2023-04-15T05:22:48;13.73;;;5.65;;
789;SDS011;378;48.844;9.156;2023-04-15T05:25:14;13.48;;;5.30;;
789;SDS011;378;48.844;9.156;2023-04-15T05:27:43;15.30;;;5.50;;
789;SDS011;378;48.844;9.156;2023-04-15T05:30:10;12.38;;;5.13;;
789;SDS011;378;48.844;9.156;2023-04-15T05:32:37;12.10;;;5.72;;
789;SDS011;378;48.844;9.156;2023-04-15T05:35:04;16.45;;;5.07;;
789;SDS011;378;48.844;9.156;2023-04-15T05:37:32;11.25;;;4.90;;
789;SDS011;378;48.844;9.156;2023-04-15T05:39:59;12.18;;;5.38;;
789;SDS011;378;48.844;9.156;2023-04-15T05:42:26;8.85;;;4.90;;
789;SDS011;378;48.844;9.156;2023-04-15T05:44:54;11.05;;;4.95;;
789;SDS011;378;48.844;9.156;2023-04-15T05:47:21;12.57;;;5.15;;
789;SDS011;378;48.844;9.156;2023-04-15T05:49:48;8.95;;;4.50;;
789;SDS011;378;48.844;9.156;2023-04-15T05:52:14;12.23;;;4.78;;
789;SDS011;378;48.844;9.156;2023-04-15T05:54:42;9.75;;;4.63;;
789;SDS011;378;48.844;9.156;2023-04-15T05:57:08;9.55;;;4.38;;
789;SDS011;378;48.844;9.156;2023-04-15T05:59:35;12.32;;;4.60;;
789;SDS011;378;48.844;9.156;2023-04-15T06:02:04;11.85;;;4.40;;
789;SDS011;378;48.844;9.156;2023-04-15T06:04:31;9.70;;;4.20;;
789;SDS011;378;48.844;9.156;2023-04-15T06:06:58;13.98;;;4.38;;
789;SDS011;378;48.844;9.156;2023-04-15T06:09:25;9.98;;;4.28;;
789;SDS011;378;48.844;9.156;2023-04-15T06:11:52;14.27;;;5.40;;
789;SDS011;378;48.844;9.156;2023-04-15T06:14:20;12.70;;;4.55;;
789;SDS011;378;48.844;9.156;2023-04-15T06:16:47;11.88;;;4.80;;
789;SDS011;378;48.844;9.156;2023-04-15T06:19:15;9.57;;;4.53;;
789;SDS011;378;48.844;9.156;2023-04-15T06:21:42;12.32;;;4.40;;
789;SDS011;378;48.844;9.156;2023-04-15T06:24:10;13.25;;;4.68;;
789;SDS011;378;48.844;9.156;2023-04-15T06:26:37;15.00;;;4.43;;
789;SDS011;378;48.844;9.156;2023-04-15T06:29:03;11.52;;;4.53;;
789;SDS011;378;48.844;9.156;2023-04-15T06:31:30;9.38;;;4.40;;
789;SDS011;378;48.844;9.156;2023-04-15T06:33:57;12.80;;;4.60;;
789;SDS011;378;48.844;9.156;2023-04-15T06:36:26;13.20;;;4.40;;
789;SDS011;378;48.844;9.156;2023-04-15T06:38:52;7.78;;;3.63;;
789;SDS011;378;48.844;9.156;2023-04-15T06:41:20;11.77;;;4.10;;
789;SDS011;378;48.844;9.156;2023-04-15T06:43:47;8.27;;;4.00;;
789;SDS011;378;48.844;9.156;2023-04-15T06:46:14;13.88;;;3.85;;
789;SDS011;378;48.844;9.156;2023-04-15T06:48:41;10.43;;;4.50;;
789;SDS011;378;48.844;9.156;2023-04-15T06:51:08;12.00;;;4.32;;
789;SDS011;378;48.844;9.156;2023-04-15T06:53:37;13.20;;;4.65;;
789;SDS011;378;48.844;9.156;2023-04-15T06:56:05;9.32;;;4.10;;
789;SDS011;378;48.844;9.156;2023-04-15T06:58:33;9.50;;;3.88;;
789;SDS011;378;48.844;9.156;2023-04-15T07:01:00;11.07;;;4.13;;
789;SDS011;378;48.844;9.156;2023-04-15T07:03:27;9.57;;;4.10;;
789;SDS011;378;48.844;9.156;2023-04-15T07:05:54;10.38;;;4.82;;
789;SDS011;378;48.844;9.156;2023-04-15T07:08:21;14.18;;;4.35;;
789;SDS011;378;48.844;9.156;2023-04-15T07:10:49;10.55;;;4.65;;
789;SDS011;378;48.844;9.156;2023-04-15T07:13:16;14.23;;;4.30;;
789;SDS011;378;48.844;9.156;2023-04-15T07:15:43;14.73;;;4.75;;
789;SDS011;378;48.844;9.156;2023-04-15T07:18:10;12.43;;;4.63;;
789;SDS011;378;48.844;9.156;2023-04-15T07:20:38;9.88;;;4.45;;
789;SDS011;378;48.844;9.156;2023-04-15T07:23:05;12.07;;;4.47;;
789;SDS011;378;48.844;9.156;2023-04-15T07:25:32;11.48;;;4.75;;
789;SDS011;378;48.844;9.156;2023-04-15T07:28:00;9.10;;;3.88;;
789;SDS011;378;48.844;9.156;2023-04-15T07:30:27;9.10;;;3.95;;
789;SDS011;378;48.844;9.156;2023-04-15T07:32:54;11.93;;;4.80;;
789;SDS011;378;48.844;9.156;2023-04-15T07:35:21;12.02;;;4.57;;
789;SDS011;378;48.844;9.156;2023-04-15T07:37:49;10.13;;;4.00;;
789;SDS011;378;48.844;9.156;2023-04-15T07:40:16;12.02;;;4.53;;
789;SDS011;378;48.844;9.156;2023-04-15T07:42:43;11.48;;;4.68;;
789;SDS011;378;48.844;9.156;2023-04-15T07:45:12;13.88;;;4.47;;
789;SDS011;378;48.844;9.156;2023-04-15T07:47:39;14.05;;;4.78;;
789;SDS011;378;48.844;9.156;2023-04-15T07:50:07;9.20;;;4.03;;
789;SDS011;378;48.844;9.156;2023-04-15T07:52:35;10.80;;;4.55;;
789;SDS011;378;48.844;9.156;2023-04-15T07:55:03;6.88;;;3.75;;
789;SDS011;378;48.844;9.156;2023-04-15T07:57:31;11.02;;;4.20;;
789;SDS011;378;48.844;9.156;2023-04-15T07:59:58;8.88;;;4.30;;
789;SDS011;378;48.844;9.156;2023-04-15T08:02:27;9.45;;;3.53;;
789;SDS011;378;48.844;9.156;2023-04-15T08:04:54;12.52;;;4.40;;
789;SDS011;378;48.844;9.156;2023-04-15T08:07:21;7.28;;;3.15;;
789;SDS011;378;48.844;9.156;2023-04-15T08:09:49;8.38;;;3.03;;
789;SDS011;378;48.844;9.156;2023-04-15T08:12:16;5.95;;;2.25;;
789;SDS011;378;48.844;9.156;2023-04-15T08:14:43;15.57;;;2.63;;
789;SDS011;378;48.844;9.156;2023-04-15T08:17:10;8.75;;;2.78;;
789;SDS011;378;48.844;9.156;2023-04-15T08:19:38;9.80;;;2.85;;
789;SDS011;378;48.844;9.156;2023-04-15T08:22:06;8.60;;;2.50;;
789;SDS011;378;48.844;9.156;2023-04-15T08:24:33;5.50;;;1.60;;
789;SDS011;378;48.844;9.156;2023-04-15T08:27:00;4.97;;;1.90;;
789;SDS011;378;48.844;9.156;2023-04-15T08:29:28;7.45;;;2.10;;
789;SDS011;378;48.844;9.156;2023-04-15T08:31:55;7.72;;;1.83;;
789;SDS011;378;48.844;9.156;2023-04-15T08:34:22;5.95;;;1.90;;
789;SDS011;378;48.844;9.156;2023-04-15T08:36:51;6.53;;;1.90;;
789;SDS011;378;48.844;9.156;2023-04-15T08:39:18;3.05;;;1.63;;
789;SDS011;378;48.844;9.156;2023-04-15T08:41:45;6.25;;;1.80;;
789;SDS011;378;48.844;9.156;2023-04-15T08:44:13;5.28;;;1.98;;
789;SDS011;378;48.844;9.156;2023-04-15T08:46:40;6.93;;;2.10;;
789;SDS011;378;48.844;9.156;2023-04-15T08:49:09;8.60;;;2.15;;
789;SDS011;378;48.844;9.156;2023-04-15T08:51:36;9.75;;;1.77;;
789;SDS011;378;48.844;9.156;2023-04-15T08:54:06;5.85;;;1.85;;
789;SDS011;378;48.844;9.156;2023-04-15T08:56:37;5.15;;;1.90;;
789;SDS011;378;48.844;9.156;2023-04-15T08:59:04;4.95;;;2.05;;
789;SDS011;378;48.844;9.156;2023-04-15T09:01:32;4.20;;;1.75;;
789;SDS011;378;48.844;9.156;2023-04-15T09:03:59;5.85;;;2.22;;
789;SDS011;378;48.844;9.156;2023-04-15T09:06:30;6.68;;;2.45;;
789;SDS011;378;48.844;9.156;2023-04-15T09:08:57;7.25;;;2.35;;
789;SDS011;378;48.844;9.156;2023-04-15T09:11:25;6.65;;;2.40;;
789;SDS011;378;48.844;9.156;2023-04-15T09:13:52;5.50;;;1.95;;
789;SDS011;378;48.844;9.156;2023-04-15T09:16:19;8.98;;;2.35;;
789;SDS011;378;48.844;9.156;2023-04-15T09:18:46;5.18;;;1.65;;
789;SDS011;378;48.844;9.156;2023-04-15T09:21:13;5.70;;;1.85;;
789;SDS011;378;48.844;9.156;2023-04-15T09:23:53;3.30;;;1.67;;
789;SDS011;378;48.844;9.156;2023-04-15T09:26:30;5.20;;;1.67;;
789;SDS011;378;48.844;9.156;2023-04-15T09:29:01;4.35;;;1.63;;
789;SDS011;378;48.844;9.156;2023-04-15T09:31:31;8.85;;;2.08;;
789;SDS011;378;48.844;9.156;2023-04-15T09:33:58;6.88;;;1.80;;
789;SDS011;378;48.844;9.156;2023-04-15T09:36:25;4.85;;;1.80;;
789;SDS011;378;48.844;9.156;2023-04-15T09:38:54;7.18;;;1.90;;
789;SDS011;378;48.844;9.156;2023-04-15T09:41:21;3.22;;;1.40;;
789;SDS011;378;48.844;9.156;2023-04-15T09:43:50;3.40;;;1.58;;
789;SDS011;378;48.844;9.156;2023-04-15T09:46:18;4.20;;;1.60;;
789;SDS011;378;48.844;9.156;2023-04-15T09:48:45;4.50;;;1.48;;
789;SDS011;378;48.844;9.156;2023-04-15T09:51:12;5.40;;;1.95;;
789;SDS011;378;48.844;9.156;2023-04-15T09:53:39;7.90;;;2.05;;
789;SDS011;378;48.844;9.156;2023-04-15T09:56:06;5.47;;;1.80;;
789;SDS011;378;48.844;9.156;2023-04-15T09:58:35;3.42;;;1.55;;
789;SDS011;378;48.844;9.156;2023-04-15T10:01:04;3.15;;;1.83;;
789;SDS011;378;48.844;9.156;2023-04-15T10:03:33;5.18;;;2.28;;
789;SDS011;378;48.844;9.156;2023-04-15T10:06:01;5.80;;;2.13;;
789;SDS011;378;48.844;9.156;2023-04-15T10:08:29;5.55;;;2.28;;
789;SDS011;378;48.844;9.156;2023-04-15T10:10:59;5.88;;;2.10;;
789;SDS011;378;48.844;9.156;2023-04-15T10:13:28;6.60;;;2.08;;
789;SDS011;378;48.844;9.156;2023-04-15T10:15:59;10.40;;;2.75;;
789;SDS011;378;48.844;9.156;2023-04-15T10:18:31;6.82;;;2.40;;
789;SDS011;378;48.844;9.156;2023-04-15T10:21:00;4.68;;;2.00;;
789;SDS011;378;48.844;9.156;2023-04-15T10:23:27;6.43;;;2.47;;
789;SDS011;378;48.844;9.156;2023-04-15T10:25:55;4.88;;;2.30;;
789;SDS011;378;48.844;9.156;2023-04-15T10:28:23;5.13;;;2.25;;
789;SDS011;378;48.844;9.156;2023-04-15T10:30:52;5.03;;;2.10;;
789;SDS011;378;48.844;9.156;2023-04-15T10:33:20;4.20;;;1.80;;
789;SDS011;378;48.844;9.156;2023-04-15T10:35:49;5.70;;;2.40;;
789;SDS011;378;48.844;9.156;2023-04-15T10:38:30;7.03;;;2.05;;
789;SDS011;378;48.844;9.156;2023-04-15T10:41:10;4.88;;;1.83;;
789;SDS011;378;48.844;9.156;2023-04-15T10:43:39;7.22;;;2.00;;
789;SDS011;378;48.844;9.156;2023-04-15T10:46:10;4.35;;;1.90;;
789;SDS011;378;48.844;9.156;2023-04-15T10:48:37;4.60;;;1.70;;
789;SDS011;378;48.844;9.156;2023-04-15T10:51:05;4.53;;;1.77;;
789;SDS011;378;48.844;9.156;2023-04-15T10:53:33;6.32;;;2.20;;
789;SDS011;378;48.844;9.156;2023-04-15T10:56:01;6.60;;;2.75;;
789;SDS011;378;48.844;9.156;2023-04-15T10:58:31;7.50;;;2.50;;
789;SDS011;378;48.844;9.156;2023-04-15T11:01:06;11.77;;;2.80;;
789;SDS011;378;48.844;9.156;2023-04-15T11:03:36;6.15;;;3.00;;
789;SDS011;378;48.844;9.156;2023-04-15T11:06:04;8.48;;;3.30;;
789;SDS011;378;48.844;9.156;2023-04-15T11:08:52;7.57;;;2.20;;
789;SDS011;378;48.844;9.156;2023-04-15T11:11:19;6.70;;;2.08;;
789;SDS011;378;48.844;9.156;2023-04-15T11:13:47;6.38;;;1.80;;
789;SDS011;378;48.844;9.156;2023-04-15T11:16:14;7.53;;;1.85;;
789;SDS011;378;48.844;9.156;2023-04-15T11:18:41;6.57;;;1.95;;
789;SDS011;378;48.844;9.156;2023-04-15T11:21:19;4.82;;;2.15;;
789;SDS011;378;48.844;9.156;2023-04-15T11:23:51;6.97;;;2.38;;
789;SDS011;378;48.844;9.156;2023-04-15T11:26:17;6.22;;;2.17;;
789;SDS011;378;48.844;9.156;2023-04-15T11:28:44;8.18;;;2.30;;
789;SDS011;378;48.844;9.156;2023-04-15T11:31:12;5.75;;;2.60;;
789;SDS011;378;48.844;9.156;2023-04-15T11:33:44;6.63;;;2.85;;
789;SDS011;378;48.844;9.156;2023-04-15T11:36:12;5.07;;;2.40;;
789;SDS011;378;48.844;9.156;2023-04-15T11:38:42;7.13;;;2.53;;
789;SDS011;378;48.844;9.156;2023-04-15T11:41:11;8.35;;;3.00;;
789;SDS011;378;48.844;9.156;2023-04-15T11:43:38;6.13;;;2.25;;
789;SDS011;378;48.844;9.156;2023-04-15T11:46:05;7.28;;;2.30;;
789;SDS011;378;48.844;9.156;2023-04-15T11:48:33;8.63;;;2.78;;
789;SDS011;378;48.844;9.156;2023-04-15T11:51:01;6.85;;;2.47;;
789;SDS011;378;48.844;9.156;2023-04-15T11:53:36;9.20;;;2.50;;
789;SDS011;378;48.844;9.156;2023-04-15T11:56:06;7.88;;;2.20;;
789;SDS011;378;48.844;9.156;2023-04-15T11:58:34;6.20;;;2.20;;
789;SDS011;378;48.844;9.156;2023-04-15T12:01:03;6.78;;;2.20;;
789;SDS011;378;48.844;9.156;2023-04-15T12:03:35;5.95;;;2.35;;
789;SDS011;378;48.844;9.156;2023-04-15T12:06:07;6.13;;;2.22;;
789;SDS011;378;48.844;9.156;2023-04-15T12:08:49;3.50;;;1.98;;
789;SDS011;378;48.844;9.156;2023-04-15T12:11:29;6.60;;;2.17;;
789;SDS011;378;48.844;9.156;2023-04-15T12:13:57;5.55;;;2.42;;
789;SDS011;378;48.844;9.156;2023-04-15T12:16:27;5.32;;;2.30;;
789;SDS011;378;48.844;9.156;2023-04-15T12:18:55;6.68;;;2.20;;
789;SDS011;378;48.844;9.156;2023-04-15T12:21:23;7.10;;;2.47;;
789;SDS011;378;48.844;9.156;2023-04-15T12:23:51;6.53;;;2.63;;
789;SDS011;378;48.844;9.156;2023-04-15T12:26:24;8.43;;;3.28;;
789;SDS011;378;48.844;9.156;2023-04-15T12:28:54;7.32;;;3.67;;
789;SDS011;378;48.844;9.156;2023-04-15T12:31:21;9.93;;;4.43;;
789;SDS011;378;48.844;9.156;2023-04-15T12:33:48;9.48;;;4.28;;
789;SDS011;378;48.844;9.156;2023-04-15T12:36:15;7.65;;;4.70;;
789;SDS011;378;48.844;9.156;2023-04-15T12:38:42;7.18;;;4.40;;
789;SDS011;378;48.844;9.156;2023-04-15T12:41:09;9.95;;;5.25;;
789;SDS011;378;48.844;9.156;2023-04-15T12:43:36;9.38;;;4.50;;
789;SDS011;378;48.844;9.156;2023-04-15T12:46:04;21.90;;;6.90;;
789;SDS011;378;48.844;9.156;2023-04-15T12:48:32;15.23;;;6.18;;
789;SDS011;378;48.844;9.156;2023-04-15T12:50:59;13.07;;;5.82;;
789;SDS011;378;48.844;9.156;2023-04-15T12:53:26;13.73;;;5.13;;
789;SDS011;378;48.844;9.156;2023-04-15T12:55:53;11.27;;;4.65;;
789;SDS011;378;48.844;9.156;2023-04-15T12:58:20;9.85;;;4.28;;
789;SDS011;378;48.844;9.156;2023-04-15T13:00:47;4.43;;;2.78;;
789;SDS011;378;48.844;9.156;2023-04-15T13:03:15;4.82;;;2.67;;
789;SDS011;378;48.844;9.156;2023-04-15T13:05:42;7.75;;;3.78;;
789;SDS011;378;48.844;9.156;2023-04-15T13:08:09;5.30;;;3.00;;
789;SDS011;378;48.844;9.156;2023-04-15T13:10:36;7.88;;;2.42;;
789;SDS011;378;48.844;9.156;2023-04-15T13:13:03;4.25;;;2.13;;
789;SDS011;378;48.844;9.156;2023-04-15T13:15:30;4.68;;;2.53;;
789;SDS011;378;48.844;9.156;2023-04-15T13:17:57;6.47;;;2.13;;
789;SDS011;378;48.844;9.156;2023-04-15T13:20:25;4.82;;;1.80;;
789;SDS011;378;48.844;9.156;2023-04-15T13:22:53;9.57;;;2.10;;
789;SDS011;378;48.844;9.156;2023-04-15T13:25:20;7.20;;;1.95;;
789;SDS011;378;48.844;9.156;2023-04-15T13:27:47;5.05;;;1.58;;
789;SDS011;378;48.844;9.156;2023-04-15T13:30:13;4.72;;;1.48;;
789;SDS011;378;48.844;9.156;2023-04-15T13:32:40;4.82;;;1.60;;
789;SDS011;378;48.844;9.156;2023-04-15T13:35:07;4.07;;;1.33;;
789;SDS011;378;48.844;9.156;2023-04-15T13:37:36;2.33;;;1.20;;
789;SDS011;378;48.844;9.156;2023-04-15T13:40:03;4.15;;;1.13;;
789;SDS011;378;48.844;9.156;2023-04-15T13:42:32;1.80;;;0.90;;
789;SDS011;378;48.844;9.156;2023-04-15T13:44:59;5.43;;;1.50;;
789;SDS011;378;48.844;9.156;2023-04-15T13:47:26;1.20;;;0.90;;
789;SDS011;378;48.844;9.156;2023-04-15T13:49:52;4.05;;;1.63;;
789;SDS011;378;48.844;9.156;2023-04-15T13:52:20;3.80;;;1.85;;
789;SDS011;378;48.844;9.156;2023-04-15T13:54:48;5.38;;;1.77;;
789;SDS011;378;48.844;9.156;2023-04-15T13:57:16;3.25;;;1.27;;
789;SDS011;378;48.844;9.156;2023-04-15T13:59:43;1.05;;;0.80;;
789;SDS011;378;48.844;9.156;2023-04-15T14:02:10;5.18;;;1.02;;
789;SDS011;378;48.844;9.156;2023-04-15T14:04:37;3.13;;;1.00;;
789;SDS011;378;48.844;9.156;2023-04-15T14:07:03;3.33;;;1.15;;
789;SDS011;378;48.844;9.156;2023-04-15T14:09:30;1.45;;;0.90;;
789;SDS011;378;48.844;9.156;2023-04-15T14:11:59;3.33;;;1.40;;
789;SDS011;378;48.844;9.156;2023-04-15T14:14:26;6.43;;;0.98;;
789;SDS011;378;48.844;9.156;2023-04-15T14:16:53;1.00;;;0.90;;
789;SDS011;378;48.844;9.156;2023-04-15T14:19:21;3.75;;;0.82;;
789;SDS011;378;48.844;9.156;2023-04-15T14:21:48;2.20;;;0.93;;
789;SDS011;378;48.844;9.156;2023-04-15T14:24:15;1.05;;;0.77;;
789;SDS011;378;48.844;9.156;2023-04-15T14:26:42;5.32;;;1.10;;
789;SDS011;378;48.844;9.156;2023-04-15T14:29:10;1.55;;;1.10;;
789;SDS011;378;48.844;9.156;2023-04-15T14:31:37;4.75;;;1.10;;
789;SDS011;378;48.844;9.156;2023-04-15T14:34:04;3.55;;;1.00;;
789;SDS011;378;48.844;9.156;2023-04-15T14:36:31;2.30;;;1.02;;
789;SDS011;378;48.844;9.156;2023-04-15T14:38:58;2.85;;;1.10;;
789;SDS011;378;48.844;9.156;2023-04-15T14:41:24;7.13;;;1.92;;
789;SDS011;378;48.844;9.156;2023-04-15T14:43:51;3.55;;;1.42;;
789;SDS011;378;48.844;9.156;2023-04-15T14:46:20;2.13;;;1.50;;
789;SDS011;378;48.844;9.156;2023-04-15T14:48:46;3.60;;;1.35;;
789;SDS011;378;48.844;9.156;2023-04-15T14:51:14;1.55;;;0.90;;
789;SDS011;378;48.844;9.156;2023-04-15T14:53:41;5.72;;;1.30;;
789;SDS011;378;48.844;9.156;2023-04-15T14:56:08;3.45;;;1.30;;
789;SDS011;378;48.844;9.156;2023-04-15T14:58:35;5.05;;;1.50;;
789;SDS011;378;48.844;9.156;2023-04-15T15:01:02;2.97;;;1.60;;
789;SDS011;378;48.844;9.156;2023-04-15T15:03:30;4.97;;;1.80;;
789;SDS011;378;48.844;9.156;2023-04-15T15:05:58;3.65;;;1.70;;
789;SDS011;378;48.844;9.156;2023-04-15T15:08:25;7.15;;;1.80;;
789;SDS011;378;48.844;9.156;2023-04-15T15:10:52;2.70;;;1.50;;
789;SDS011;378;48.844;9.156;2023-04-15T15:13:19;3.72;;;1.35;;
789;SDS011;378;48.844;9.156;2023-04-15T15:15:46;2.92;;;1.20;;
789;SDS011;378;48.844;9.156;2023-04-15T15:18:14;4.22;;;1.60;;
789;SDS011;378;48.844;9.156;2023-04-15T15:20:43;2.50;;;1.20;;
789;SDS011;378;48.844;9.156;2023-04-15T15:23:10;3.45;;;1.67;;
789;SDS011;378;48.844;9.156;2023-04-15T15:25:37;6.70;;;2.33;;
789;SDS011;378;48.844;9.156;2023-04-15T15:28:04;2.30;;;1.60;;
789;SDS011;378;48.844;9.156;2023-04-15T15:30:32;3.00;;;1.50;;
789;SDS011;378;48.844;9.156;2023-04-15T15:32:59;3.03;;;1.75;;
789;SDS011;378;48.844;9.156;2023-04-15T15:35:26;3.30;;;1.45;;
789;SDS011;378;48.844;9.156;2023-04-15T15:37:54;6.60;;;1.42;;
789;SDS011;378;48.844;9.156;2023-04-15T15:40:21;5.40;;;1.55;;
789;SDS011;378;48.844;9.156;2023-04-15T15:42:48;3.75;;;1.52;;
789;SDS011;378;48.844;9.156;2023-04-15T15:45:15;2.25;;;1.23;;